Latest Weather Observations for Gabo Island

IDN60801

Issued at 10:02 am EST Thursday 7 May 2015 (issued every 30 minutes, with the page automatically refreshed every 10 minutes)

About weather observations | Map of weather stations | Latest weather observations for NSW | Other Formats
Station Details ID: 084016 Name: GABO ISLAND LIGHTHOUSE Lat: -37.57 Lon: 149.92 Height: 15.2 m
Data from the previous 72 hours. | See also: Recent months at Gabo Island
Date/Time
EST
Temp
°C
App
Temp
°C
Dew
Point
Rel
Hum
%
Delta-T
°C
Wind Press
QNH
hPa
Press
MSL
hPa
Rain
since 9 am
mm
Dir
 
Spd
km/h
Gust
km/h
Spd
kts
Gust
kts
07/10:00am 14.9 8.8 4.6 50 4.8 W 26 32 14 17 1014.6 - 0.0
07/09:30am 14.2 9.0 5.5 56 4.1 W 22 30 12 16 1014.8 - 0.0
07/09:00am 13.7 9.2 6.1 60 3.6 WNW 19 30 10 16 1015.0 1015.0 0.0
07/08:30am 13.1 10.0 7.1 67 2.9 WNW 13 19 7 10 1015.0 - 0.0
07/08:00am 12.3 7.8 5.9 65 3.0 WNW 19 24 10 13 1014.7 - 0.0
07/07:30am 11.9 7.3 5.4 64 3.0 WNW 19 28 10 15 1014.5 - 0.0
07/07:00am 11.9 5.7 4.4 60 3.4 W 26 39 14 21 1014.3 - 0.0
07/06:30am 12.0 5.1 4.8 61 3.3 W 30 39 16 21 1013.8 - 0.0
07/06:00am 12.2 5.4 5.0 61 3.3 W 30 39 16 21 1013.8 1013.8 0.0
07/05:30am 12.0 6.0 5.3 63 3.1 W 26 35 14 19 1013.7 - 0.0
07/05:00am 12.2 6.0 6.0 66 2.9 W 28 35 15 19 1013.4 - 0.0
07/04:30am 12.2 6.5 6.8 69 2.6 W 26 35 14 19 1013.4 - 0.0
07/04:00am 11.5 8.6 8.0 79 1.7 NW 13 19 7 10 1013.2 - 0.0
07/03:30am 11.9 9.0 8.2 78 1.8 NW 13 19 7 10 1013.3 - 0.0
07/03:00am 12.6 8.6 8.4 75 2.1 W 19 24 10 13 1013.4 1013.4 0.0
07/02:30am 12.9 9.5 7.8 71 2.5 WNW 15 20 8 11 1013.5 - 0.0
07/02:00am 13.2 9.4 7.7 69 2.7 WNW 17 24 9 13 1013.7 - 0.0
07/01:30am 13.3 9.9 7.6 68 2.8 WNW 15 20 8 11 1013.6 - 0.0
07/01:00am 13.2 10.4 7.0 66 3.0 NW 11 15 6 8 1013.5 - 0.0
07/12:30am 12.4 9.5 6.3 66 2.9 NNW 11 13 6 7 1013.4 - 0.0
07/12:00am 12.5 9.4 5.7 63 3.2 NNW 11 15 6 8 1013.3 1013.3 0.0
 
Date/Time
EST
Temp
°C
App
Temp
°C
Dew
Point
Rel
Hum
%
Delta-T
°C
Wind Press
QNH
hPa
Press
MSL
hPa
Rain
since 9 am
mm
Dir
 
Spd
km/h
Gust
km/h
Spd
kts
Gust
kts
06/11:30pm 13.2 9.9 4.7 56 3.9 NW 11 17 6 9 1013.3 - 0.0
06/11:00pm 13.2 9.3 3.4 51 4.4 NW 13 17 7 9 1013.3 - 0.0
06/10:30pm 13.4 8.6 2.8 48 4.7 W 17 26 9 14 1013.3 - 0.0
06/10:00pm 13.7 9.6 2.0 45 5.1 NNW 13 17 7 9 1013.0 - 0.0
06/09:30pm 13.7 9.3 2.9 48 4.8 NNW 15 20 8 11 1012.6 - 0.0
06/09:00pm 14.4 10.7 2.4 44 5.3 NW 11 15 6 8 1012.5 1012.5 0.0
06/08:30pm 14.5 10.0 2.0 43 5.5 NNW 15 20 8 11 1012.5 - 0.0
06/08:00pm 14.3 9.2 1.0 40 5.7 NNW 17 24 9 13 1012.3 - 0.0
06/07:30pm 14.2 9.7 2.1 44 5.3 NNW 15 24 8 13 1012.2 - 0.0
06/07:00pm 14.2 9.6 3.6 49 4.8 NNW 17 24 9 13 1011.9 - 0.0
06/06:30pm 15.1 11.1 4.9 50 4.8 NW 15 19 8 10 1011.7 - 0.0
06/06:00pm 15.2 11.9 6.3 55 4.3 W 13 15 7 8 1011.3 1011.4 0.0
06/05:30pm 15.1 12.5 6.2 55 4.3 NW 9 11 5 6 1011.1 - 0.0
06/05:00pm 15.8 13.0 7.1 56 4.3 W 11 13 6 7 1010.6 - 0.0
06/04:30pm 17.6 14.4 6.7 48 5.4 WSW 13 15 7 8 1010.5 - 0.0
06/04:00pm 18.1 14.4 6.4 46 5.8 WSW 15 19 8 10 1010.2 - 0.0
06/03:30pm 18.5 13.6 4.2 38 6.8 WSW 19 24 10 13 1010.1 - 0.0
06/03:00pm 18.5 15.4 3.6 37 7.0 WSW 9 15 5 8 1009.9 1009.9 0.0
06/02:30pm 18.3 14.4 5.3 42 6.3 SW 15 19 8 10 1009.8 - 0.0
06/02:00pm 18.7 14.0 3.3 36 7.2 W 17 20 9 11 1009.5 - 0.0
06/01:30pm 18.2 13.8 2.8 35 7.1 W 15 19 8 10 1009.6 - 0.0
06/01:00pm 18.3 13.9 2.7 35 7.2 W 15 20 8 11 1009.8 - 0.0
06/12:30pm 17.8 13.7 2.5 36 7.0 W 13 17 7 9 1010.1 - 0.0
06/12:00pm 18.0 13.3 0.8 31 7.6 WNW 15 24 8 13 1010.8 1010.8 0.0
06/11:30am 18.2 13.6 1.5 32 7.5 NW 15 22 8 12 1011.1 - 0.0
06/11:00am 17.2 11.9 -0.7 29 7.6 NW 17 24 9 13 1011.6 - 0.0
06/10:30am 16.9 11.3 1.0 34 7.0 NNW 20 30 11 16 1011.7 - 0.0
06/10:00am 16.3 11.1 2.3 39 6.3 NNW 19 26 10 14 1011.7 - 0.0
06/09:30am 15.5 10.9 1.6 39 6.1 NW 15 24 8 13 1011.7 - 0.0
06/09:00am 14.7 10.1 1.3 40 5.8 NW 15 22 8 12 1011.4 1011.4 0.0
06/08:30am 14.5 10.2 1.0 40 5.8 NNW 13 20 7 11 1011.0 - 0.0
06/08:00am 13.4 8.4 1.3 43 5.2 NNW 17 24 9 13 1010.6 - 0.0
06/07:30am 12.3 8.1 1.5 47 4.6 NNW 13 19 7 10 1010.2 - 0.0
06/07:00am 11.5 7.3 1.6 50 4.2 NW 13 15 7 8 1009.9 - 0.0
06/06:30am 10.6 6.5 2.4 57 3.5 NW 13 17 7 9 1009.2 - 0.0
06/06:00am 10.4 6.4 2.7 59 3.3 NW 13 15 7 8 1009.1 1008.9 0.0
06/05:30am 10.6 6.5 2.4 57 3.5 NW 13 13 7 7 1008.6 - 0.0
06/05:00am 11.3 7.6 4.7 64 3.0 NW 13 15 7 8 1008.2 - 0.0
06/04:30am 11.9 7.8 4.1 59 3.5 W 15 19 8 10 1007.6 - 0.0
06/04:00am 11.9 8.3 2.8 53 4.0 WNW 11 15 6 8 1007.2 - 0.0
06/03:30am 11.9 8.1 1.9 50 4.3 NNW 11 15 6 8 1007.0 - 0.0
06/03:00am 11.4 7.7 2.1 53 4.0 N 11 13 6 7 1006.5 1006.5 0.0
06/02:30am 11.3 7.7 2.8 56 3.7 N 11 11 6 6 1006.7 - 0.0
06/02:00am 13.7 8.5 2.4 46 5.0 W 19 24 10 13 1006.6 - 0.0
06/01:30am 14.2 8.8 1.2 41 5.6 WNW 19 28 10 15 1006.5 - 0.0
06/01:00am 14.0 10.2 1.9 44 5.3 NW 11 15 6 8 1006.4 - 0.0
06/12:30am 12.9 9.0 3.6 53 4.2 NW 13 15 7 8 1006.1 - 0.0
06/12:00am 13.4 10.2 3.1 49 4.6 NW 9 13 5 7 1005.8 1005.8 0.0
 
Date/Time
EST
Temp
°C
App
Temp
°C
Dew
Point
Rel
Hum
%
Delta-T
°C
Wind Press
QNH
hPa
Press
MSL
hPa
Rain
since 9 am
mm
Dir
 
Spd
km/h
Gust
km/h
Spd
kts
Gust
kts
05/11:30pm 13.8 9.8 4.8 54 4.2 W 15 17 8 9 1005.5 - 0.0
05/11:00pm 14.2 9.7 2.2 44 5.3 WNW 15 24 8 13 1005.0 - 0.0
05/10:30pm 14.4 10.4 0.6 39 5.9 NW 11 13 6 7 1005.0 - 0.0
05/10:00pm 14.6 11.2 1.6 41 5.7 NNW 9 11 5 6 1004.7 - 0.0
05/09:30pm 16.4 9.4 1.9 37 6.5 W 28 35 15 19 1004.2 - 0.0
05/09:00pm 16.7 7.9 1.1 35 6.9 W 37 46 20 25 1003.4 1003.3 0.0
05/08:30pm 16.9 8.0 3.0 39 6.4 W 39 46 21 25 1003.2 - 0.0
05/08:00pm 17.4 8.3 1.9 35 7.0 W 39 52 21 28 1003.1 - 0.0
05/07:30pm 17.8 8.9 3.2 37 6.8 W 39 48 21 26 1002.5 - 0.0
05/07:00pm 18.6 10.1 3.2 36 7.2 W 37 48 20 26 1002.1 - 0.0
05/06:30pm 18.8 11.1 3.3 35 7.2 WNW 33 44 18 24 1001.3 - 0.0
05/06:03pm 19.7 11.4 2.2 31 8.1 W 35 57 19 31 1000.8 - 0.0
05/06:00pm 19.6 12.2 6.8 43 6.5 W 35 44 19 24 1000.8 1000.7 0.0
05/05:33pm 20.1 11.5 4.5 36 7.5 W 39 57 21 31 999.9 - 0.0
05/05:30pm 20.0 11.8 4.6 36 7.5 W 37 54 20 29 999.8 - 0.0
05/05:23pm 20.1 12.5 3.9 34 7.7 W 33 54 18 29 999.7 - 0.0
05/05:00pm 20.6 13.3 5.6 37 7.4 W 33 44 18 24 999.3 - 0.0
05/04:42pm 20.8 14.3 4.7 34 7.9 W 28 44 15 24 999.0 - 0.0
05/04:30pm 20.2 18.7 10.5 53 5.3 SW 9 17 5 9 998.9 - 0.0
05/04:00pm 20.7 18.7 12.6 59 4.6 SW 15 24 8 13 998.7 - 0.0
05/03:30pm 19.9 15.8 12.7 63 4.1 SSW 26 35 14 19 998.3 - 0.0
05/03:00pm 20.6 12.7 11.6 56 5.0 SW 44 57 24 31 997.8 998.0 0.0
05/02:59pm 20.5 13.6 11.5 56 5.0 SW 39 57 21 31 997.7 - 0.0
05/02:40pm 22.3 16.3 12.1 52 5.8 WSW 35 41 19 22 997.2 - 0.0
05/02:30pm 23.7 21.9 12.2 48 6.5 WSW 13 15 7 8 996.8 - 0.0
05/02:00pm 25.1 22.2 9.7 37 8.5 WNW 15 24 8 13 996.3 - 0.0
05/01:30pm 23.1 19.6 13.5 54 5.6 NNE 24 28 13 15 996.0 - 0.0
05/01:00pm 22.5 17.9 13.4 56 5.3 NE 30 37 16 20 996.7 - 0.0
05/12:30pm 22.5 17.7 12.8 54 5.5 NNE 30 35 16 19 997.6 - 0.0
05/12:00pm 21.6 16.9 13.3 59 4.8 NE 30 35 16 19 998.1 998.4 0.0
05/11:30am 21.6 17.5 12.7 57 5.1 NNE 26 32 14 17 998.9 - 0.0
05/11:00am 20.6 17.1 12.3 59 4.7 NE 22 28 12 15 999.5 - 0.0
05/10:30am 20.7 18.0 13.6 64 4.1 NNE 20 24 11 13 1000.8 - 0.0
05/10:00am 19.9 17.2 11.6 58 4.6 NNE 17 20 9 11 1001.3 - 0.0
05/09:30am 21.7 18.6 9.0 44 6.8 N 15 20 8 11 1002.0 - 0.0
05/09:00am 19.3 16.6 10.4 56 4.8 N 15 19 8 10 1002.6 1002.6 0.0
05/08:30am 20.4 16.8 5.2 37 7.5 N 13 19 7 10 1002.6 - 0.0
05/08:00am 16.6 13.5 7.4 54 4.6 N 13 17 7 9 1002.8 - 0.0
05/07:30am 16.7 13.3 9.0 60 4.0 N 17 20 9 11 1002.7 - 0.0
05/07:00am 17.8 12.9 8.5 54 4.8 N 24 30 13 16 1002.2 - 0.0
05/06:30am 17.1 12.9 9.7 61 3.9 N 22 30 12 16 1002.2 - 0.0
05/06:00am 16.4 12.8 10.4 67 3.2 N 20 24 11 13 1002.7 1002.8 0.0
05/05:30am 16.0 14.0 12.6 80 1.9 NNW 15 19 8 10 1003.0 - 0.0
05/05:00am 16.9 15.1 11.0 68 3.2 NW 11 15 6 8 1003.2 - 0.0
05/04:30am 16.6 13.7 12.3 76 2.4 N 19 24 10 13 1003.3 - 0.0
05/04:00am 16.9 11.9 13.9 82 1.7 N 33 43 18 23 1002.9 - 0.0
05/03:30am 17.0 11.1 14.6 86 1.4 NNE 39 50 21 27 1003.3 - 0.0
05/03:04am 17.1 10.3 14.7 86 1.4 NNE 44 63 24 34 1003.8 - 0.0
05/03:00am 17.1 9.7 14.3 83 1.6 NNE 46 63 25 34 1003.8 1003.9 0.0
05/02:30am 17.1 10.7 14.3 83 1.6 NNE 41 54 22 29 1004.4 - 0.0
05/02:00am 17.5 10.6 14.6 83 1.7 NNE 44 54 24 29 1005.1 - 0.0
05/01:30am 17.6 10.8 14.3 81 1.9 NNE 43 54 23 29 1006.1 - 0.0
05/01:00am 17.8 10.8 14.3 80 2.0 N 44 57 24 31 1006.4 - 0.0
05/12:30am 17.9 11.5 14.4 80 2.0 NNE 41 52 22 28 1007.2 - 0.0
05/12:00am 17.8 11.5 14.7 82 1.8 NNE 41 52 22 28 1007.7 1007.6 0.0
 
Date/Time
EST
Temp
°C
App
Temp
°C
Dew
Point
Rel
Hum
%
Delta-T
°C
Wind Press
QNH
hPa
Press
MSL
hPa
Rain
since 9 am
mm
Dir
 
Spd
km/h
Gust
km/h
Spd
kts
Gust
kts
04/11:30pm 17.9 11.7 14.8 82 1.8 NNE 41 54 22 29 1007.8 - 0.0
04/11:00pm 17.9 11.7 14.8 82 1.8 NNE 41 56 22 30 1008.5 - 0.0
04/10:30pm 17.8 12.0 14.9 83 1.7 NNE 39 50 21 27 1009.1 - 0.0
04/10:00pm 17.9 12.7 14.6 81 1.9 NNE 35 46 19 25 1009.8 - 0.0
04/09:30pm 17.8 13.1 14.9 83 1.7 NNE 33 43 18 23 1010.4 - 0.0
04/09:00pm 17.6 11.6 14.5 82 1.8 NNE 39 48 21 26 1010.8 1010.7 0.0
04/08:30pm 17.3 11.6 14.3 82 1.7 NNE 37 44 20 24 1011.0 - 0.0
04/08:00pm 16.4 11.4 13.9 85 1.4 NNE 33 41 18 22 1011.4 - 0.0
04/07:30pm 16.4 12.8 14.3 87 1.2 NNE 26 32 14 17 1011.6 - 0.0
04/07:00pm 16.2 12.5 13.9 86 1.3 NNE 26 32 14 17 1011.7 - 0.0
04/06:30pm 16.5 13.2 13.9 84 1.5 NNE 24 30 13 16 1011.9 - 0.0
04/06:00pm 16.8 14.3 14.0 83 1.6 NNE 20 24 11 13 1011.9 1011.9 0.0
04/05:30pm 17.5 14.1 13.8 79 2.1 NNE 24 28 13 15 1011.9 - 0.0
04/05:00pm 17.6 14.5 13.5 77 2.3 NNE 22 26 12 14 1012.1 - 0.0
04/04:30pm 17.8 15.1 13.4 75 2.5 NE 20 24 11 13 1012.1 - 0.0
04/04:00pm 18.1 15.5 13.3 73 2.7 ENE 19 22 10 12 1012.2 - 0.0
04/03:30pm 18.2 15.9 13.0 71 2.9 ENE 17 20 9 11 1012.4 - 0.0
04/03:00pm 18.5 17.0 13.0 70 3.1 ENE 13 17 7 9 1012.5 1012.6 0.0
04/02:30pm 18.5 17.5 12.4 67 3.4 E 9 13 5 7 1012.7 - 0.0
04/02:00pm 18.7 17.4 12.4 67 3.5 E 11 13 6 7 1012.8 - 0.0
04/01:30pm 18.7 17.4 12.4 67 3.5 E 11 17 6 9 1012.9 - 0.0
04/01:00pm 18.2 17.5 12.0 67 3.4 SE 7 11 4 6 1013.5 - 0.0
04/12:30pm 18.4 17.5 12.7 69 3.2 SSE 9 11 5 6 1013.9 - 0.0
04/12:00pm 18.3 17.8 12.6 69 3.2 S 7 11 4 6 1014.2 1014.4 0.0
04/11:30am 17.8 17.1 12.0 69 3.2 S 7 9 4 5 1015.1 - 0.0
04/11:00am 17.7 16.7 12.3 70 3.0 WSW 9 11 5 6 1015.6 - 0.0
04/10:30am 17.8 16.4 12.2 70 3.1 WNW 11 13 6 7 1015.8 - 0.0

Other Formats:

Comma delimited format used in spreadsheet applications
http://www.bom.gov.au/fwo/IDN60801/IDN60801.94933.axf

JavaScript Object Notation format (JSON) in row-major order
http://www.bom.gov.au/fwo/IDN60801/IDN60801.94933.json